Time;durP1;ratioP1;P1;durP2;ratioP2;P2;SDS_P1;SDS_P2;PMS_P1;PMS_P2;Temp;Humidity;BMP_temperature;BMP_pressure;BME280_temperature;BME280_humidity;BME280_pressure;Samples;Min_cycle;Max_cycle;Signal;HPM_P1;HPM_P2
2022/01/14 05:11:36;;;;;;;;;;;;;;;0.46;76.60;98756.47;4233448;27;10431;-73
2022/01/14 05:13:37;;;;;;;;;;;;;;;0.54;76.34;98760.31;4231809;28;6685;-71
2022/01/14 05:15:39;;;;;;;;;;;;;;;0.57;75.96;98747.16;4232906;28;5584;-71
2022/01/14 05:17:41;;;;;;;;;;;;;;;0.49;76.14;98751.94;4232337;28;5812;-72
2022/01/14 05:19:43;;;;;;;;;;;;;;;0.47;76.30;98751.19;4233244;28;5688;-71
2022/01/14 05:21:45;;;;;;;;;;;;;;;0.27;78.66;98757.44;4232665;28;5790;-71
2022/01/14 05:23:47;;;;;;;;;;;;;;;0.02;79.14;98751.00;4230968;28;5737;-73
2022/01/14 05:25:48;;;;;;;;;;;;;;;0.23;78.17;98761.13;4229702;28;6440;-74
2022/01/14 05:27:50;;;;;;;;;;;;;;;0.06;80.02;98755.13;4231736;28;5246;-72
2022/01/14 05:29:52;;;;;;;;;;;;;;;0.08;79.32;98745.47;4228232;28;7694;-72
2022/01/14 05:32:02;;;;;;;;;;;;;;;0.15;79.03;98754.66;4231929;27;5635;-71
2022/01/14 05:34:04;;;;;;;;;;;;;;;0.16;78.63;98753.72;4232202;28;5632;-71
2022/01/14 05:36:06;;;;;;;;;;;;;;;0.36;77.61;98744.88;4230790;28;5708;-72
2022/01/14 05:38:08;;;;;;;;;;;;;;;0.46;76.92;98743.47;4232720;28;5767;-72
2022/01/14 05:40:11;;;;;;;;;;;;;;;0.53;76.64;98737.81;4231910;28;5696;-72
2022/01/14 05:42:13;;;;;;;;;;;;;;;0.53;76.34;98748.25;4229693;28;5830;-72
2022/01/14 05:44:15;;;;;;;;;;;;;;;0.57;76.36;98731.56;4225969;28;6378;-71
2022/01/14 05:46:16;;;;;;;;;;;;;;;0.62;76.14;98746.06;4225043;28;5093;-72
2022/01/14 05:48:18;;;;;;;;;;;;;;;0.67;75.94;98744.03;4232947;28;5708;-72
2022/01/14 05:50:24;;;;;;;;;;;;;;;0.64;75.79;98742.44;4218407;28;5745;-72
2022/01/14 05:52:25;;;;;;;;;;;;;;;0.70;75.57;98744.72;4216041;28;5808;-72
2022/01/14 05:54:29;;;;;;;;;;;;;;;0.68;75.46;98748.31;4219995;28;5078;-72
2022/01/14 05:56:31;;;;;;;;;;;;;;;0.70;75.49;98747.34;4207197;28;7751;-73
2022/01/14 05:58:34;;;;;;;;;;;;;;;0.69;75.45;98742.22;4220909;28;5623;-73
2022/01/14 06:00:36;;;;;;;;;;;;;;;0.70;75.48;98743.91;4221655;28;5721;-72
2022/01/14 06:02:38;;;;;;;;;;;;;;;0.68;75.55;98740.50;4215769;28;5047;-73
2022/01/14 06:04:40;;;;;;;;;;;;;;;0.69;75.46;98737.84;4224280;28;5708;-73
2022/01/14 06:06:41;;;;;;;;;;;;;;;0.71;75.51;98740.38;4221094;28;5684;-72
2022/01/14 06:08:48;;;;;;;;;;;;;;;0.69;75.51;98742.22;4219453;28;5724;-73
2022/01/14 06:10:49;;;;;;;;;;;;;;;0.69;75.69;98739.63;4213058;28;5844;-73
2022/01/14 06:12:51;;;;;;;;;;;;;;;0.63;75.90;98732.13;4207240;28;5623;-73
2022/01/14 06:14:52;;;;;;;;;;;;;;;0.61;76.02;98742.63;4205365;28;5023;-72
2022/01/14 06:16:54;;;;;;;;;;;;;;;0.61;75.95;98740.03;4204227;28;8413;-74
2022/01/14 06:18:56;;;;;;;;;;;;;;;0.63;75.70;98745.13;4207483;28;5797;-73
2022/01/14 06:20:57;;;;;;;;;;;;;;;0.65;75.80;98746.72;4203644;28;5638;-73
2022/01/14 06:22:59;;;;;;;;;;;;;;;0.63;76.10;98732.13;4214335;28;5706;-68
2022/01/14 06:25:01;;;;;;;;;;;;;;;0.63;76.06;98734.72;4206030;28;5685;-69
2022/01/14 06:27:02;;;;;;;;;;;;;;;0.63;76.13;98732.13;4219632;28;5676;-69
2022/01/14 06:29:04;;;;;;;;;;;;;;;0.65;75.99;98740.69;4209857;28;6091;-69
2022/01/14 06:31:05;;;;;;;;;;;;;;;0.69;75.79;98737.00;4207029;28;5636;-68
2022/01/14 06:33:07;;;;;;;;;;;;;;;0.69;75.75;98732.63;4202435;28;5639;-68
2022/01/14 06:35:13;;;;;;;;;;;;;;;0.71;75.80;98740.38;4204097;28;5686;-69
2022/01/14 06:37:16;;;;;;;;;;;;;;;0.71;75.97;98729.94;4202996;28;5762;-68
2022/01/14 06:39:21;;;;;;;;;;;;;;;0.70;75.90;98734.31;4203969;28;5671;-69
2022/01/14 06:41:22;;;;;;;;;;;;;;;0.71;75.97;98736.00;4202462;28;5647;-70
2022/01/14 06:43:26;;;;;;;;;;;;;;;0.72;76.20;98726.41;4203950;28;5760;-69
2022/01/14 06:45:27;;;;;;;;;;;;;;;0.73;76.28;98730.69;4203403;28;5818;-69
2022/01/14 06:47:29;;;;;;;;;;;;;;;0.73;76.25;98733.31;4203710;28;5701;-69
2022/01/14 06:49:31;;;;;;;;;;;;;;;0.74;76.15;98735.81;4203666;28;5829;-68
2022/01/14 06:51:33;;;;;;;;;;;;;;;0.55;77.33;98720.34;4204011;28;5697;-68
2022/01/14 06:53:34;;;;;;;;;;;;;;;0.53;78.38;98732.63;4203628;28;5686;-68
2022/01/14 06:55:36;;;;;;;;;;;;;;;0.52;77.97;98724.91;4202756;28;5734;-68
2022/01/14 06:57:38;;;;;;;;;;;;;;;0.74;77.01;98732.38;4203398;28;5696;-68
2022/01/14 06:59:40;;;;;;;;;;;;;;;0.80;76.52;98730.28;4203982;28;5853;-69
2022/01/14 07:01:41;;;;;;;;;;;;;;;0.89;76.23;98734.13;4202201;28;5631;-69
2022/01/14 07:03:43;;;;;;;;;;;;;;;0.93;76.13;98735.66;4203152;28;5694;-69
2022/01/14 07:05:45;;;;;;;;;;;;;;;0.97;76.08;98736.31;4215207;28;5681;-70
2022/01/14 07:07:46;;;;;;;;;;;;;;;0.97;75.94;98736.31;4218785;28;5621;-70
2022/01/14 07:09:57;;;;;;;;;;;;;;;1.02;76.15;98734.28;4207536;28;5669;-70
2022/01/14 07:12:01;;;;;;;;;;;;;;;1.03;76.33;98735.97;4206725;28;5680;-70
2022/01/14 07:14:04;;;;;;;;;;;;;;;0.97;76.84;98738.91;4208545;28;5714;-70
2022/01/14 07:16:06;;;;;;;;;;;;;;;0.95;76.58;98743.38;4176095;28;5646;-71
2022/01/14 07:18:09;;;;;;;;;;;;;;;1.07;76.40;98732.25;4213946;28;5628;-70
2022/01/14 07:20:14;;;;;;;;;;;;;;;1.08;76.14;98740.00;4216116;28;5920;-70
2022/01/14 07:22:15;;;;;;;;;;;;;;;1.10;76.14;98737.28;4207123;28;5751;-70
2022/01/14 07:24:17;;;;;;;;;;;;;;;1.14;76.02;98736.22;4218017;28;5728;-70
2022/01/14 07:26:19;;;;;;;;;;;;;;;1.16;76.25;98739.56;4216650;28;5693;-70
2022/01/14 07:28:21;;;;;;;;;;;;;;;1.13;76.39;98748.41;4203010;28;6545;-70
2022/01/14 07:30:22;;;;;;;;;;;;;;;1.13;76.42;98742.31;4202573;28;5851;-70
2022/01/14 07:32:24;;;;;;;;;;;;;;;1.16;76.52;98752.59;4201983;28;5860;-70
2022/01/14 07:34:26;;;;;;;;;;;;;;;1.18;76.41;98750.72;4203189;28;6803;-70
2022/01/14 07:36:28;;;;;;;;;;;;;;;1.15;76.72;98751.75;4199102;28;5911;-70
2022/01/14 07:38:29;;;;;;;;;;;;;;;0.99;80.61;98761.34;4206220;28;5768;-70
2022/01/14 07:40:31;;;;;;;;;;;;;;;1.12;81.98;98757.13;4211632;28;5712;-70
2022/01/14 07:42:33;;;;;;;;;;;;;;;1.29;79.27;98752.72;4219389;28;5081;-70
2022/01/14 07:44:35;;;;;;;;;;;;;;;1.36;78.61;98757.50;4219346;28;7726;-71
2022/01/14 07:46:36;;;;;;;;;;;;;;;1.39;78.04;98756.50;4201341;28;5638;-70
2022/01/14 07:48:38;;;;;;;;;;;;;;;1.31;78.75;98750.88;4218582;28;5636;-70
2022/01/14 07:50:40;;;;;;;;;;;;;;;1.36;78.23;98751.44;4216114;28;5770;-70
2022/01/14 07:52:45;;;;;;;;;;;;;;;1.40;77.74;98759.00;4202719;28;5635;-69
2022/01/14 07:54:55;;;;;;;;;;;;;;;1.37;77.77;98756.59;4203467;28;5817;-70
2022/01/14 07:57:03;;;;;;;;;;;;;;;1.36;77.61;98752.31;4202803;28;5798;-70
2022/01/14 07:59:07;;;;;;;;;;;;;;;1.38;77.37;98752.22;4205794;28;5788;-70
2022/01/14 08:01:09;;;;;;;;;;;;;;;1.39;77.64;98761.72;4217815;28;5624;-70
2022/01/14 08:03:11;;;;;;;;;;;;;;;1.35;78.10;98757.56;4184670;28;5782;-71
2022/01/14 08:05:15;;;;;;;;;;;;;;;1.17;79.01;98760.31;4218523;28;5681;-70
2022/01/14 08:07:22;;;;;;;;;;;;;;;1.20;78.66;98755.84;4217727;28;5621;-71
2022/01/14 08:09:27;;;;;;;;;;;;;;;1.33;78.26;98759.44;4217638;28;5625;-71
2022/01/14 08:11:28;;;;;;;;;;;;;;;1.40;77.94;98752.97;4211619;28;5700;-68
2022/01/14 08:13:30;;;;;;;;;;;;;;;1.44;78.04;98752.69;4219046;28;5681;-70
2022/01/14 08:15:32;;;;;;;;;;;;;;;1.30;78.40;98757.84;4218555;28;5712;-70
2022/01/14 08:17:34;;;;;;;;;;;;;;;1.28;78.47;98746.69;4218805;28;5797;-71
2022/01/14 08:19:36;;;;;;;;;;;;;;;1.36;78.16;98751.44;4218588;28;5768;-71
2022/01/14 08:21:39;;;;;;;;;;;;;;;1.43;77.47;98751.00;4210874;28;5708;-71
2022/01/14 08:23:41;;;;;;;;;;;;;;;1.27;78.23;98754.59;4201970;28;5689;-70
2022/01/14 08:25:42;;;;;;;;;;;;;;;1.25;78.42;98746.03;4201192;28;5646;-70
2022/01/14 08:27:44;;;;;;;;;;;;;;;1.46;77.69;98744.78;4209260;28;5668;-72
2022/01/14 08:29:47;;;;;;;;;;;;;;;1.36;78.42;98754.03;4190381;28;5628;-70
2022/01/14 08:31:49;;;;;;;;;;;;;;;1.29;78.80;98752.72;4207956;28;5780;-71
2022/01/14 08:33:50;;;;;;;;;;;;;;;1.43;78.17;98742.34;4215993;28;5765;-70
2022/01/14 08:35:52;;;;;;;;;;;;;;;1.44;78.23;98749.22;4207086;28;5837;-71
2022/01/14 08:37:53;;;;;;;;;;;;;;;1.41;78.54;98746.81;4217701;28;5619;-71
2022/01/14 08:39:55;;;;;;;;;;;;;;;1.38;78.43;98750.44;4213331;28;5682;-70
2022/01/14 08:41:58;;;;;;;;;;;;;;;1.56;77.81;98747.69;4209396;28;5702;-71
2022/01/14 08:44:00;;;;;;;;;;;;;;;1.58;77.72;98738.84;4219014;28;5717;-71
2022/01/14 08:46:22;;;;;;;;;;;;;;;1.54;77.82;98732.13;4217604;28;5820;-68
2022/01/14 08:48:25;;;;;;;;;;;;;;;1.46;78.37;98739.56;4217493;28;5615;-69
2022/01/14 08:50:34;;;;;;;;;;;;;;;1.44;78.48;98738.81;4212025;28;5685;-69
2022/01/14 08:52:36;;;;;;;;;;;;;;;1.34;79.18;98741.09;4212106;28;5680;-69
2022/01/14 08:54:38;;;;;;;;;;;;;;;1.49;78.73;98742.00;4218788;28;5672;-69
2022/01/14 08:56:40;;;;;;;;;;;;;;;1.44;78.58;98744.03;4217110;28;5687;-70
2022/01/14 08:58:42;;;;;;;;;;;;;;;1.49;78.19;98739.41;4200528;28;5806;-70
2022/01/14 09:00:44;;;;;;;;;;;;;;;1.49;78.31;98749.00;4212748;28;5701;-70
2022/01/14 09:02:46;;;;;;;;;;;;;;;1.50;78.38;98745.44;4217188;28;5902;-69
2022/01/14 09:04:48;;;;;;;;;;;;;;;1.64;77.96;98748.09;4217305;28;6340;-70
2022/01/14 09:06:49;;;;;;;;;;;;;;;1.65;77.74;98750.59;4202020;28;5701;-70
2022/01/14 09:08:56;;;;;;;;;;;;;;;1.45;78.62;98743.94;4201698;28;5693;-70
2022/01/14 09:10:58;;;;;;;;;;;;;;;1.54;78.25;98746.94;4200309;28;5647;-69
2022/01/14 09:13:02;;;;;;;;;;;;;;;1.56;78.13;98745.06;4201783;28;5772;-70
2022/01/14 09:15:05;;;;;;;;;;;;;;;1.44;78.79;98742.25;4201698;28;5796;-70
2022/01/14 09:17:06;;;;;;;;;;;;;;;1.59;78.22;98743.16;4201920;28;5702;-70
2022/01/14 09:19:08;;;;;;;;;;;;;;;1.64;78.11;98743.72;4184167;28;6507;-70
2022/01/14 09:21:10;;;;;;;;;;;;;;;1.80;77.46;98740.19;4202022;28;5879;-70
2022/01/14 09:23:17;;;;;;;;;;;;;;;1.75;77.86;98738.69;4201765;28;5772;-70
2022/01/14 09:25:19;;;;;;;;;;;;;;;1.84;77.45;98739.09;4201100;28;5627;-70
2022/01/14 09:27:21;;;;;;;;;;;;;;;1.77;77.97;98740.38;4200309;28;5686;-70
2022/01/14 09:29:22;;;;;;;;;;;;;;;1.87;77.46;98736.31;4201981;28;5776;-71
2022/01/14 09:31:24;;;;;;;;;;;;;;;1.97;77.15;98737.44;4201480;28;5686;-70
2022/01/14 09:33:26;;;;;;;;;;;;;;;2.02;77.02;98737.97;4201693;28;5697;-70
2022/01/14 09:35:27;;;;;;;;;;;;;;;2.06;76.97;98734.28;4184525;28;5744;-70
2022/01/14 09:37:29;;;;;;;;;;;;;;;2.01;77.14;98741.53;4200487;28;5639;-70
2022/01/14 09:39:32;;;;;;;;;;;;;;;1.77;77.64;98737.78;4200370;28;5671;-70
2022/01/14 09:41:35;;;;;;;;;;;;;;;1.63;78.38;98746.41;4202237;28;5701;-70
2022/01/14 09:43:41;;;;;;;;;;;;;;;1.82;77.73;98741.81;4201911;28;5761;-71
2022/01/14 09:45:43;;;;;;;;;;;;;;;1.82;77.24;98740.97;4200575;28;5070;-71
2022/01/14 09:47:49;;;;;;;;;;;;;;;1.78;77.59;98735.06;4204555;28;5693;-70
2022/01/14 09:49:51;;;;;;;;;;;;;;;1.73;77.53;98737.13;4204242;28;5686;-70
2022/01/14 09:51:53;;;;;;;;;;;;;;;1.63;77.99;98736.81;4204698;28;5690;-70
2022/01/14 09:53:54;;;;;;;;;;;;;;;1.62;77.69;98735.16;4205007;28;5689;-71
2022/01/14 09:55:57;;;;;;;;;;;;;;;1.80;77.41;98742.78;4203708;28;5643;-70
2022/01/14 09:58:00;;;;;;;;;;;;;;;1.90;77.04;98725.69;4205068;28;5705;-70
2022/01/14 10:00:07;;;;;;;;;;;;;;;1.96;76.28;98730.53;4204623;28;5768;-70
2022/01/14 10:02:28;;;;;;;;;;;;;;;1.92;76.54;98732.47;4187369;28;5662;-70
2022/01/14 10:04:31;;;;;;;;;;;;;;;1.60;77.78;98730.97;4204528;28;5689;-70
2022/01/14 10:06:35;;;;;;;;;;;;;;;1.66;77.56;98731.41;4204275;28;5740;-70
2022/01/14 10:08:37;;;;;;;;;;;;;;;1.86;77.08;98732.00;4204458;28;5689;-70
2022/01/14 10:10:42;;;;;;;;;;;;;;;1.93;76.69;98722.91;4203799;28;6401;-70
2022/01/14 10:12:44;;;;;;;;;;;;;;;1.93;76.73;98722.91;4203102;28;5833;-71
2022/01/14 10:14:55;;;;;;;;;;;;;;;1.83;77.16;98722.63;4203117;28;5632;-70
2022/01/14 10:17:01;;;;;;;;;;;;;;;1.73;77.47;98719.72;4203939;28;5681;-70
2022/01/14 10:19:03;;;;;;;;;;;;;;;1.44;78.73;98715.34;4203024;28;5030;-71
2022/01/14 10:21:10;;;;;;;;;;;;;;;1.62;77.84;98710.84;4204170;28;5810;-71
2022/01/14 10:23:12;;;;;;;;;;;;;;;1.67;77.73;98716.63;4204694;28;6569;-70
2022/01/14 10:25:19;;;;;;;;;;;;;;;1.65;77.74;98705.44;4204779;28;5700;-70
2022/01/14 10:27:35;;;;;;;;;;;;;;;1.37;79.49;98707.06;4204220;28;6350;-71
2022/01/14 10:29:38;;;;;;;;;;;;;;;1.67;78.12;98706.19;4202860;28;6288;-70
2022/01/14 10:31:43;;;;;;;;;;;;;;;1.72;78.24;98699.78;4204179;28;5696;-70
2022/01/14 10:33:45;;;;;;;;;;;;;;;1.81;77.67;98700.97;4203823;28;5677;-70
2022/01/14 10:35:47;;;;;;;;;;;;;;;1.87;77.34;98705.84;4204093;28;5817;-70
2022/01/14 10:37:49;;;;;;;;;;;;;;;1.86;77.60;98695.50;4203968;28;5698;-70
2022/01/14 10:39:54;;;;;;;;;;;;;;;1.93;77.26;98687.22;4204192;28;5820;-70
2022/01/14 10:41:56;;;;;;;;;;;;;;;1.85;78.04;98688.63;4203712;28;5785;-70
2022/01/14 10:44:23;;;;;;;;;;;;;;;2.02;77.46;98685.81;4204097;28;5689;-70
2022/01/14 10:46:28;;;;;;;;;;;;;;;2.05;77.33;98677.81;4204250;28;5689;-70
2022/01/14 10:48:32;;;;;;;;;;;;;;;1.98;77.46;98674.72;4202733;28;5634;-70
2022/01/14 10:50:56;;;;;;;;;;;;;;;2.14;76.70;98669.41;4204229;28;5689;-70
2022/01/14 10:52:59;;;;;;;;;;;;;;;1.74;78.27;98671.84;4207159;28;5805;-70
2022/01/14 10:55:03;;;;;;;;;;;;;;;1.61;78.94;98668.28;4207621;28;5752;-69
2022/01/14 10:57:24;;;;;;;;;;;;;;;1.31;80.18;98665.72;4205915;28;5634;-70
2022/01/14 10:59:29;;;;;;;;;;;;;;;1.57;79.21;98664.16;4206589;28;5693;-70
2022/01/14 11:01:32;;;;;;;;;;;;;;;1.77;78.40;98660.38;4203658;28;5693;-70
2022/01/14 11:03:39;;;;;;;;;;;;;;;1.85;77.98;98665.13;4203739;28;5690;-70
2022/01/14 11:05:42;;;;;;;;;;;;;;;1.86;77.73;98666.81;4202344;28;5646;-70
2022/01/14 11:07:46;;;;;;;;;;;;;;;1.87;77.91;98661.50;4202759;28;5654;-71
2022/01/14 11:09:49;;;;;;;;;;;;;;;1.78;77.92;98656.84;4202283;28;5608;-71
2022/01/14 11:11:51;;;;;;;;;;;;;;;1.93;77.58;98660.31;4202122;28;5626;-71
2022/01/14 11:13:53;;;;;;;;;;;;;;;1.96;77.41;98654.91;4203493;28;5748;-71
2022/01/14 11:15:56;;;;;;;;;;;;;;;1.93;77.52;98649.88;4203675;28;6362;-70
2022/01/14 11:18:04;;;;;;;;;;;;;;;1.88;77.76;98652.75;4204334;28;5763;-71
2022/01/14 11:20:09;;;;;;;;;;;;;;;1.89;77.79;98643.16;4207945;28;5736;-71
2022/01/14 11:24:34;;;;;;;;;;;;;;;1.91;78.17;98641.28;4210319;28;5631;-70
2022/01/14 11:26:37;;;;;;;;;;;;;;;1.92;78.19;98632.50;4201903;28;5778;-71
2022/01/14 11:28:42;;;;;;;;;;;;;;;1.90;78.43;98626.56;4201863;28;5628;-70
2022/01/14 11:30:44;;;;;;;;;;;;;;;1.97;78.12;98627.88;4203294;28;5698;-71
2022/01/14 11:32:57;;;;;;;;;;;;;;;2.03;78.05;98617.88;4201834;28;5616;-70
2022/01/14 11:34:59;;;;;;;;;;;;;;;2.09;77.60;98618.44;4201909;28;5635;-70
2022/01/14 11:37:07;;;;;;;;;;;;;;;2.04;77.79;98626.56;4217429;28;5728;-71
2022/01/14 11:39:31;;;;;;;;;;;;;;;2.03;78.32;98612.66;4217013;28;5723;-70
2022/01/14 11:42:09;;;;;;;;;;;;;;;2.05;78.26;98620.41;4220077;28;5743;-70
2022/01/14 11:44:41;;;;;;;;;;;;;;;1.97;78.22;98614.84;4200924;28;5656;-69
2022/01/14 11:46:45;;;;;;;;;;;;;;;1.98;78.28;98616.50;4204156;28;5704;-70
2022/01/14 11:48:52;;;;;;;;;;;;;;;2.00;78.43;98598.97;4204281;28;5643;-70
2022/01/14 11:51:00;;;;;;;;;;;;;;;1.99;78.17;98603.34;4202016;28;5647;-70
2022/01/14 11:53:02;;;;;;;;;;;;;;;1.98;78.49;98601.69;4218040;28;5719;-71
2022/01/14 11:55:19;;;;;;;;;;;;;;;2.01;78.42;98603.25;4219692;28;5688;-71
2022/01/14 11:57:46;;;;;;;;;;;;;;;1.93;78.70;98605.53;4209605;28;5705;-70
2022/01/14 11:59:48;;;;;;;;;;;;;;;1.99;78.52;98592.09;4202308;28;5679;-70
2022/01/14 12:01:55;;;;;;;;;;;;;;;1.96;78.61;98587.91;4202800;28;5709;-70
2022/01/14 12:03:57;;;;;;;;;;;;;;;2.01;78.56;98595.44;4211276;28;5801;-70
2022/01/14 12:06:07;;;;;;;;;;;;;;;1.96;78.29;98593.13;4216230;28;5805;-70
2022/01/14 12:08:14;;;;;;;;;;;;;;;1.85;79.07;98600.78;4201727;28;5635;-70
2022/01/14 12:10:29;;;;;;;;;;;;;;;1.97;78.72;98586.13;4200842;28;5721;-70
2022/01/14 12:12:33;;;;;;;;;;;;;;;1.94;78.49;98594.16;4205638;28;5673;-70
2022/01/14 12:14:42;;;;;;;;;;;;;;;1.93;78.87;98592.50;4215332;28;5887;-70
2022/01/14 12:18:57;;;;;;;;;;;;;;;2.13;78.29;98578.16;4204157;28;5698;-70
2022/01/14 12:21:02;;;;;;;;;;;;;;;1.92;78.73;98581.19;4186009;28;5645;-69
2022/01/14 12:23:08;;;;;;;;;;;;;;;2.07;78.42;98568.97;4204239;28;5801;-69
2022/01/14 12:25:10;;;;;;;;;;;;;;;2.01;78.56;98574.56;4214278;28;5616;-70
2022/01/14 12:27:22;;;;;;;;;;;;;;;1.98;78.89;98572.16;4202181;28;5656;-70
2022/01/14 12:29:44;;;;;;;;;;;;;;;2.11;78.19;98559.19;4218153;28;5620;-70
2022/01/14 12:32:19;;;;;;;;;;;;;;;2.09;78.31;98561.88;4217838;28;5797;-70
2022/01/14 12:34:20;;;;;;;;;;;;;;;2.07;78.53;98562.94;4195653;28;5604;-70
2022/01/14 12:36:23;;;;;;;;;;;;;;;1.97;78.68;98557.44;4201061;28;5631;-70
2022/01/14 12:38:25;;;;;;;;;;;;;;;2.00;78.79;98555.47;4219393;28;5668;-70
2022/01/14 12:40:31;;;;;;;;;;;;;;;2.04;78.63;98550.91;4219088;28;5684;-70
2022/01/14 12:42:33;;;;;;;;;;;;;;;2.12;78.35;98548.63;4218302;28;5675;-69
2022/01/14 12:44:39;;;;;;;;;;;;;;;1.90;78.98;98549.16;4214912;28;5906;-70
2022/01/14 12:48:56;;;;;;;;;;;;;;;1.94;79.12;98536.78;4202072;28;5697;-70
2022/01/14 12:51:18;;;;;;;;;;;;;;;2.37;78.75;98534.00;4212933;28;5918;-71
2022/01/14 12:53:20;;;;;;;;;;;;;;;2.31;77.82;98530.88;4217402;28;5676;-71
2022/01/14 12:55:22;;;;;;;;;;;;;;;2.31;78.15;98524.81;4204278;28;5839;-71
2022/01/14 12:57:25;;;;;;;;;;;;;;;1.65;79.83;98526.38;4201538;28;5730;-71
2022/01/14 12:59:27;;;;;;;;;;;;;;;1.78;80.10;98520.41;4208484;28;5859;-71
2022/01/14 13:01:33;;;;;;;;;;;;;;;1.94;79.46;98521.13;4202437;28;5679;-71
2022/01/14 13:03:37;;;;;;;;;;;;;;;1.98;79.35;98517.38;4216767;28;5699;-71
2022/01/14 13:05:39;;;;;;;;;;;;;;;2.07;79.11;98518.56;4217855;28;5612;-71
2022/01/14 13:07:42;;;;;;;;;;;;;;;2.13;78.90;98511.16;4204214;28;5820;-71
2022/01/14 13:09:44;;;;;;;;;;;;;;;2.11;78.79;98502.63;4209340;28;5681;-71
2022/01/14 13:11:51;;;;;;;;;;;;;;;1.93;79.67;98501.19;4218402;28;5796;-72
2022/01/14 13:14:00;;;;;;;;;;;;;;;2.04;79.64;98507.41;4214393;28;5780;-72
2022/01/14 13:16:05;;;;;;;;;;;;;;;2.20;78.81;98502.03;4201376;28;5697;-71
2022/01/14 13:18:15;;;;;;;;;;;;;;;2.14;79.50;98510.22;4208658;28;5622;-71
2022/01/14 13:20:17;;;;;;;;;;;;;;;2.21;79.07;98506.31;4214424;28;5616;-71
2022/01/14 13:22:19;;;;;;;;;;;;;;;2.16;79.21;98495.34;4221097;28;5680;-71
2022/01/14 13:24:29;;;;;;;;;;;;;;;2.11;79.83;98505.22;4213999;28;5804;-72
2022/01/14 13:26:31;;;;;;;;;;;;;;;2.28;78.86;98497.16;4208254;28;5669;-71
2022/01/14 13:28:33;;;;;;;;;;;;;;;2.26;78.94;98492.94;4221999;28;5827;-71
2022/01/14 13:30:42;;;;;;;;;;;;;;;2.21;79.06;98495.03;4222119;28;5684;-71
2022/01/14 13:32:45;;;;;;;;;;;;;;;2.10;79.52;98493.13;4220738;28;5698;-72
2022/01/14 13:34:47;;;;;;;;;;;;;;;2.22;78.93;98497.53;4221792;28;5683;-71
2022/01/14 13:36:50;;;;;;;;;;;;;;;2.32;78.48;98480.34;4222055;28;5785;-71
2022/01/14 13:39:11;;;;;;;;;;;;;;;2.27;78.55;98479.81;4222068;28;5676;-71
2022/01/14 13:41:13;;;;;;;;;;;;;;;2.21;78.84;98480.22;4203831;28;5650;-71
2022/01/14 13:43:26;;;;;;;;;;;;;;;2.25;78.95;98479.06;4223120;28;5661;-71
2022/01/14 13:45:28;;;;;;;;;;;;;;;2.32;78.48;98480.34;4212980;28;5796;-71
2022/01/14 13:47:34;;;;;;;;;;;;;;;2.34;78.43;98478.47;4220402;28;5619;-71
2022/01/14 13:49:37;;;;;;;;;;;;;;;2.29;78.47;98480.56;4221428;28;5668;-71
2022/01/14 13:51:39;;;;;;;;;;;;;;;2.25;78.86;98483.44;4221386;28;5700;-71
2022/01/14 13:53:45;;;;;;;;;;;;;;;2.20;79.07;98478.53;4221621;28;5672;-71
2022/01/14 13:55:54;;;;;;;;;;;;;;;2.30;78.65;98465.72;4203497;28;5643;-71
2022/01/14 13:58:16;;;;;;;;;;;;;;;2.35;78.81;98471.47;4221996;28;5667;-71
2022/01/14 14:00:18;;;;;;;;;;;;;;;2.37;78.88;98469.59;4221305;28;5784;-72
2022/01/14 14:02:27;;;;;;;;;;;;;;;2.33;79.11;98466.34;4212514;28;5631;-71
2022/01/14 14:04:31;;;;;;;;;;;;;;;2.43;78.94;98466.59;4208760;28;5625;-71
2022/01/14 14:06:45;;;;;;;;;;;;;;;2.46;78.91;98470.75;4207332;28;5917;-71
2022/01/14 14:15:56;;;;;;;;;;;;;;;2.30;79.40;98461.34;4212525;28;5709;-71
2022/01/14 14:17:58;;;;;;;;;;;;;;;2.43;79.09;98456.16;4206626;28;5912;-71
2022/01/14 14:20:00;;;;;;;;;;;;;;;2.47;78.78;98452.38;4203622;28;5643;-71
2022/01/14 14:22:10;;;;;;;;;;;;;;;2.21;80.36;98456.72;4206044;28;5692;-72
2022/01/14 14:24:13;;;;;;;;;;;;;;;2.38;79.51;98447.81;4203838;28;5775;-71
2022/01/14 14:26:32;;;;;;;;;;;;;;;2.51;79.06;98451.25;4202100;28;5690;-71
2022/01/14 14:28:34;;;;;;;;;;;;;;;2.52;79.01;98454.72;4209372;28;5749;-71
2022/01/14 14:30:51;;;;;;;;;;;;;;;2.52;79.14;98454.72;4206725;28;5697;-71
2022/01/14 14:32:54;;;;;;;;;;;;;;;2.54;79.02;98455.44;4205815;28;5709;-71
2022/01/14 14:34:59;;;;;;;;;;;;;;;2.55;78.86;98450.13;4205239;28;5688;-71
2022/01/14 14:37:01;;;;;;;;;;;;;;;2.64;78.78;98453.88;4202449;28;5693;-71
2022/01/14 14:39:03;;;;;;;;;;;;;;;2.66;78.75;98452.00;4187189;28;5657;-71
2022/01/14 14:41:05;;;;;;;;;;;;;;;2.70;78.46;98445.63;4210883;28;5849;-71
2022/01/14 14:43:07;;;;;;;;;;;;;;;2.71;78.45;98449.06;4207439;28;5698;-70
2022/01/14 14:45:09;;;;;;;;;;;;;;;2.74;78.29;98449.72;4202473;28;5749;-70
2022/01/14 14:47:12;;;;;;;;;;;;;;;2.58;79.00;98443.84;4206316;28;5743;-70
2022/01/14 14:49:13;;;;;;;;;;;;;;;2.72;78.57;98443.78;4217318;28;5636;-70
2022/01/14 14:51:16;;;;;;;;;;;;;;;2.79;78.30;98441.56;4207392;28;5628;-70
2022/01/14 14:53:18;;;;;;;;;;;;;;;2.79;78.13;98437.16;4214851;28;5631;-70
2022/01/14 14:55:20;;;;;;;;;;;;;;;2.52;79.28;98445.09;4206515;28;6337;-70
2022/01/14 14:57:22;;;;;;;;;;;;;;;2.40;80.00;98439.88;4212447;28;5738;-70
2022/01/14 14:59:24;;;;;;;;;;;;;;;2.36;80.26;98436.59;4214573;28;5731;-70
2022/01/14 15:01:26;;;;;;;;;;;;;;;2.39;79.92;98436.44;4211362;28;5675;-70
2022/01/14 15:03:28;;;;;;;;;;;;;;;2.54;79.59;98429.34;4207232;28;5858;-70
2022/01/14 15:05:32;;;;;;;;;;;;;;;2.66;79.17;98430.28;4203979;28;5773;-72
2022/01/14 15:07:34;;;;;;;;;;;;;;;2.69;78.93;98430.06;4211263;28;6405;-70
2022/01/14 15:09:38;;;;;;;;;;;;;;;2.60;79.32;98426.28;4195095;28;5789;-70
2022/01/14 15:11:41;;;;;;;;;;;;;;;2.63;79.31;98423.50;4234013;28;5762;-71
2022/01/14 15:13:43;;;;;;;;;;;;;;;2.63;79.44;98426.09;4216176;28;5743;-71
2022/01/14 15:16:01;;;;;;;;;;;;;;;2.72;78.95;98424.63;4214431;28;5707;-71
2022/01/14 15:20:11;;;;;;;;;;;;;;;2.64;79.19;98422.56;4204917;28;5908;-71
2022/01/14 15:22:13;;;;;;;;;;;;;;;2.68;79.08;98421.41;4204572;28;5809;-72
2022/01/14 15:24:15;;;;;;;;;;;;;;;2.64;79.83;98422.56;4222609;28;5808;-72
2022/01/14 15:26:19;;;;;;;;;;;;;;;2.60;79.80;98419.31;4200035;28;5122;-70
2022/01/14 15:28:21;;;;;;;;;;;;;;;2.66;79.76;98420.66;4206430;28;5612;-70
2022/01/14 15:30:25;;;;;;;;;;;;;;;2.50;80.69;98420.88;4220863;28;6392;-70
2022/01/14 15:32:27;;;;;;;;;;;;;;;2.64;79.72;98422.56;4209019;28;5803;-70
2022/01/14 15:34:29;;;;;;;;;;;;;;;2.45;80.55;98422.94;4207410;28;5820;-71
2022/01/14 15:36:31;;;;;;;;;;;;;;;2.64;79.77;98417.34;4215369;28;5774;-71
2022/01/14 15:38:32;;;;;;;;;;;;;;;2.73;79.46;98411.50;4215834;28;5839;-71
2022/01/14 15:40:37;;;;;;;;;;;;;;;2.67;80.08;98416.28;4206719;28;5804;-71
2022/01/14 15:42:39;;;;;;;;;;;;;;;2.67;79.90;98411.88;4210204;28;5791;-70
2022/01/14 15:44:41;;;;;;;;;;;;;;;2.71;80.01;98415.13;4214963;28;5865;-70
2022/01/14 15:46:43;;;;;;;;;;;;;;;2.73;79.65;98414.09;4216732;28;5806;-71
2022/01/14 15:49:05;;;;;;;;;;;;;;;2.82;79.45;98412.63;4216165;28;5882;-71
2022/01/14 15:51:06;;;;;;;;;;;;;;;2.82;79.47;98416.06;4216623;28;5796;-71
2022/01/14 15:53:09;;;;;;;;;;;;;;;2.79;79.34;98411.06;4202001;28;5741;-71
2022/01/14 15:55:11;;;;;;;;;;;;;;;2.85;79.08;98410.66;4197476;28;5878;-71
2022/01/14 15:57:13;;;;;;;;;;;;;;;2.83;79.14;98417.75;4203450;28;5956;-71
2022/01/14 15:59:15;;;;;;;;;;;;;;;2.86;79.21;98416.72;4198797;28;5793;-71
2022/01/14 16:01:17;;;;;;;;;;;;;;;2.73;79.80;98414.09;4208492;28;5892;-71
2022/01/14 16:03:19;;;;;;;;;;;;;;;2.79;79.35;98416.28;4204229;28;6454;-71
2022/01/14 16:05:22;;;;;;;;;;;;;;;2.85;78.96;98418.47;4208766;28;5877;-71
2022/01/14 16:07:27;;;;;;;;;;;;;;;2.89;78.91;98413.88;4209781;28;5668;-70
2022/01/14 16:09:33;;;;;;;;;;;;;;;2.83;79.12;98411.66;4203939;28;5788;-70
2022/01/14 16:11:35;;;;;;;;;;;;;;;2.86;79.00;98416.72;4212329;28;5813;-71
2022/01/14 16:13:41;;;;;;;;;;;;;;;2.83;78.97;98417.75;4205801;28;6555;-71
2022/01/14 16:15:43;;;;;;;;;;;;;;;2.65;79.75;98407.72;4212282;28;5908;-71
2022/01/14 16:17:45;;;;;;;;;;;;;;;2.70;79.59;98411.69;4197761;28;5915;-71
2022/01/14 16:19:47;;;;;;;;;;;;;;;2.67;79.42;98411.88;4204235;28;5803;-71
2022/01/14 16:21:49;;;;;;;;;;;;;;;2.67;79.10;98406.66;4204116;28;6471;-71
2022/01/14 16:23:53;;;;;;;;;;;;;;;2.65;79.08;98405.94;4213092;28;5958;-71
2022/01/14 16:25:54;;;;;;;;;;;;;;;2.68;79.04;98410.13;4197253;28;5805;-70
2022/01/14 16:27:56;;;;;;;;;;;;;;;2.69;78.98;98409.16;4200053;28;6035;-71
2022/01/14 16:29:58;;;;;;;;;;;;;;;2.73;78.95;98411.50;4190246;28;6441;-71
2022/01/14 16:32:00;;;;;;;;;;;;;;;2.71;78.76;98413.34;4182327;28;5789;-71